Moore, Oklahoma
Current Conditions -  °F | °C
As of 8:55 AM on Wednesday 22 Oct 2014 (Local Time) from KOUN Reporting Station
Haze Haze  
Wind Chill: 61°   Ceiling: Unl
Heat Index: 61°   Visibility: 4mi
Dew Point: 61°   Wind: 3mph
Humidity: 100%   Direction: 170°S
Pressure: 30.16"   Gusts: NA
Location:  35.34°N, 97.48°W
Report Text: KOUN 221355Z AUTO 17003KT 4SM BR CLR 16/16 A3016 RMK AO2
Loading
Personal Weather Stations






























Interactive Weather Map
Tropical Storm Tracking
New forecast layout! Learn more

10-Day Weather Forecast

Advertisements
Track Severe Weather on mobile